Time;durP1;ratioP1;P1;durP2;ratioP2;P2;SDS_P1;SDS_P2;PMS_P1;PMS_P2;Temp;Humidity;BMP_temperature;BMP_pressure;BME280_temperature;BME280_humidity;BME280_pressure;Samples;Min_cycle;Max_cycle;Signal;HPM_P1;HPM_P2
2022/05/18 00:00:27;;;;;;;5.50;2.20;;;;;;;11.36;45.43;101755.50;5014154;28;20138;-69
2022/05/18 00:03:03;;;;;;;11.30;2.00;;;;;;;11.23;45.70;101760.28;5013942;28;20056;-69
2022/05/18 00:05:34;;;;;;;5.40;2.40;;;;;;;11.18;45.89;101763.38;5013897;28;20050;-69
2022/05/18 00:08:01;;;;;;;5.05;2.25;;;;;;;11.17;45.98;101761.69;5013437;28;20054;-70
2022/05/18 00:10:28;;;;;;;9.18;2.35;;;;;;;11.07;46.26;101768.88;5014338;28;20424;-70
2022/05/18 00:12:55;;;;;;;6.90;2.38;;;;;;;11.06;46.48;101771.69;5014589;28;20054;-70
2022/05/18 00:15:24;;;;;;;8.05;2.58;;;;;;;11.04;46.62;101773.69;5013713;28;20056;-70
2022/05/18 00:17:51;;;;;;;13.00;2.50;;;;;;;11.05;46.54;101773.53;5013759;28;20050;-69
2022/05/18 00:20:18;;;;;;;12.25;2.42;;;;;;;10.89;46.97;101782.09;5014252;28;20167;-70
2022/05/18 00:22:57;;;;;;;9.55;2.47;;;;;;;11.06;46.98;101794.03;5014419;28;20073;-70
2022/05/18 00:25:31;;;;;;;6.13;2.35;;;;;;;10.98;47.23;101791.19;5013462;28;20141;-70
2022/05/18 00:27:57;;;;;;;4.03;2.00;;;;;;;11.09;47.07;101787.53;5013849;28;20517;-69
2022/05/18 00:30:26;;;;;;;10.50;2.40;;;;;;;10.89;47.46;101794.66;5013580;28;20128;-70
2022/05/18 00:32:53;;;;;;;6.07;2.78;;;;;;;10.96;47.53;101795.81;5014191;28;20136;-69
2022/05/18 00:35:20;;;;;;;8.55;2.53;;;;;;;10.85;47.51;101795.94;5013708;28;20045;-70
2022/05/18 00:37:47;;;;;;;7.40;2.42;;;;;;;10.90;47.09;101802.59;5014042;28;20073;-70
2022/05/18 00:40:16;;;;;;;8.50;2.90;;;;;;;10.90;47.09;101805.28;5013527;28;20049;-71
2022/05/18 00:42:43;;;;;;;11.10;2.67;;;;;;;10.80;47.19;101804.41;5013341;28;20076;-70
2022/05/18 00:45:11;;;;;;;7.18;2.60;;;;;;;10.74;47.02;101823.72;5013909;28;20399;-69
2022/05/18 00:47:38;;;;;;;18.15;2.50;;;;;;;10.67;46.58;101809.16;5013772;28;20097;-70
2022/05/18 00:50:08;;;;;;;13.38;3.25;;;;;;;10.73;46.54;101819.34;5013646;28;20081;-70
2022/05/18 00:52:49;;;;;;;5.78;2.70;;;;;;;10.66;45.79;101820.88;5013728;28;20096;-70
2022/05/18 00:55:19;;;;;;;6.57;2.33;;;;;;;10.58;45.75;101818.88;5013091;28;20140;-70
2022/05/18 00:57:52;;;;;;;7.18;2.85;;;;;;;10.59;45.63;101833.13;5013445;28;20056;-70
2022/05/18 01:00:20;;;;;;;11.10;3.22;;;;;;;10.80;45.44;101841.13;5014857;28;20461;-70
2022/05/18 01:02:55;;;;;;;12.05;3.60;;;;;;;10.69;45.57;101850.97;5017315;28;20404;-70
2022/05/18 01:09:28;;;;;;;16.60;3.35;;;;;;;10.69;44.87;101858.19;5016471;28;20045;-70
2022/05/18 01:11:55;;;;;;;7.00;2.70;;;;;;;10.66;44.54;101866.50;5007845;28;20145;-70
2022/05/18 01:14:59;;;;;;;10.27;3.22;;;;;;;10.61;44.24;101857.97;5017019;28;20081;-70
2022/05/18 01:17:29;;;;;;;12.00;2.80;;;;;;;10.53;44.10;101861.31;4936954;29;20048;-70
2022/05/18 01:19:58;;;;;;;13.60;2.80;;;;;;;10.36;44.11;101859.22;4937251;29;20134;-70
2022/05/18 01:22:57;;;;;;;13.90;2.72;;;;;;;10.44;43.81;101868.31;4936629;29;20544;-70
2022/05/18 01:25:34;;;;;;;7.30;2.15;;;;;;;10.40;43.63;101864.16;4936638;29;20491;-70
2022/05/18 01:28:01;;;;;;;7.88;2.47;;;;;;;10.43;43.39;101868.44;4936855;29;20241;-71
2022/05/18 01:30:29;;;;;;;4.43;2.40;;;;;;;10.49;43.43;101875.97;4936552;29;20143;-70
2022/05/18 01:32:58;;;;;;;8.40;2.50;;;;;;;10.39;43.38;101875.91;4936778;29;20142;-69
2022/05/18 01:35:27;;;;;;;9.73;2.28;;;;;;;10.35;43.28;101885.19;4936206;29;20143;-69
2022/05/18 01:37:57;;;;;;;8.57;2.00;;;;;;;10.45;43.29;101890.63;4936539;29;20088;-70
2022/05/18 01:40:44;;;;;;;8.50;2.15;;;;;;;10.36;43.21;101883.34;4936223;29;20150;-70
2022/05/18 01:43:39;;;;;;;8.60;2.47;;;;;;;10.43;42.81;101893.44;4936414;29;20147;-69
2022/05/18 01:46:12;;;;;;;7.65;2.30;;;;;;;10.46;42.57;101893.16;4926801;29;20138;-70
2022/05/18 01:48:45;;;;;;;8.55;1.80;;;;;;;10.28;42.44;101897.41;4936725;29;20547;-70
2022/05/18 01:51:25;;;;;;;14.18;2.47;;;;;;;10.38;42.22;101901.03;4968062;28;20046;-70
2022/05/18 01:53:51;;;;;;;6.30;1.65;;;;;;;10.23;42.14;101897.78;5015983;28;20152;-70
2022/05/18 01:56:18;;;;;;;7.55;2.72;;;;;;;10.24;42.18;101898.66;5015785;28;20052;-70
2022/05/18 01:58:46;;;;;;;11.13;1.70;;;;;;;10.26;41.45;101896.69;5016045;28;20438;-70
2022/05/18 02:01:12;;;;;;;7.05;1.70;;;;;;;10.25;41.71;101900.34;5015759;28;20500;-70
2022/05/18 02:03:39;;;;;;;11.25;1.60;;;;;;;10.28;41.02;101908.16;5015698;28;20462;-70
2022/05/18 02:06:05;;;;;;;8.13;1.45;;;;;;;10.25;40.90;101901.22;5016187;28;20081;-70
2022/05/18 02:08:32;;;;;;;12.07;1.98;;;;;;;10.24;40.99;101914.75;5015742;28;20088;-70
2022/05/18 02:10:59;;;;;;;11.23;1.88;;;;;;;10.24;40.98;101910.25;5015011;28;20526;-70
2022/05/18 02:13:25;;;;;;;12.95;1.88;;;;;;;10.29;40.94;101912.53;5015316;28;20089;-70
2022/05/18 02:15:52;;;;;;;7.20;1.55;;;;;;;10.34;40.93;101915.69;5015932;28;20065;-70
2022/05/18 02:18:19;;;;;;;10.20;1.75;;;;;;;10.35;40.92;101912.00;5015106;28;20050;-70
2022/05/18 02:20:46;;;;;;;10.82;1.75;;;;;;;10.21;40.66;101915.00;5015342;28;20140;-70
2022/05/18 02:23:12;;;;;;;6.97;1.85;;;;;;;10.22;40.71;101914.03;5015701;28;20104;-70
2022/05/18 02:25:39;;;;;;;9.00;2.08;;;;;;;10.11;40.00;101911.41;5015420;28;20588;-70
2022/05/18 02:28:06;;;;;;;7.25;2.28;;;;;;;10.08;39.74;101912.50;5015346;28;20100;-70
2022/05/18 02:30:32;;;;;;;6.50;1.63;;;;;;;10.02;39.50;101913.84;5015305;28;20133;-70
2022/05/18 02:32:59;;;;;;;7.28;1.70;;;;;;;10.11;39.42;101914.06;5015877;28;20104;-70
2022/05/18 02:35:26;;;;;;;8.30;1.50;;;;;;;10.07;39.23;101913.47;5015338;28;20446;-70
2022/05/18 02:37:52;;;;;;;6.05;1.50;;;;;;;10.08;39.25;101917.84;5015357;28;20546;-71
2022/05/18 02:40:19;;;;;;;4.85;1.40;;;;;;;9.99;38.14;101916.81;5015260;28;20057;-70
2022/05/18 02:42:45;;;;;;;7.28;1.73;;;;;;;9.97;38.25;101910.72;5015797;28;20081;-70
2022/05/18 02:45:12;;;;;;;5.85;1.67;;;;;;;9.84;37.88;101920.75;5015098;28;20053;-70
2022/05/18 02:47:38;;;;;;;12.15;1.65;;;;;;;9.83;37.82;101919.03;5015625;28;20141;-71
2022/05/18 02:50:06;;;;;;;10.18;1.85;;;;;;;9.75;37.54;101922.34;5015731;28;20088;-71
2022/05/18 02:52:32;;;;;;;4.25;1.42;;;;;;;9.84;37.76;101917.22;5015219;28;20060;-71
2022/05/18 02:57:45;;;;;;;8.57;2.08;;;;;;;9.80;37.27;101911.25;5014888;28;20053;-71
2022/05/18 03:00:13;;;;;;;5.13;1.20;;;;;;;9.59;37.15;101907.66;5014727;28;20437;-70
2022/05/18 03:02:40;;;;;;;4.75;1.20;;;;;;;9.69;37.42;101906.78;5014696;28;20517;-70
2022/05/18 03:05:07;;;;;;;4.68;1.30;;;;;;;9.60;36.51;101910.19;5015067;28;20490;-70
2022/05/18 03:07:34;;;;;;;4.72;1.42;;;;;;;9.51;36.80;101919.00;5014650;28;20046;-70
2022/05/18 03:10:00;;;;;;;9.85;1.88;;;;;;;9.57;36.81;101922.00;5015077;28;20531;-70
2022/05/18 03:12:26;;;;;;;15.35;1.60;;;;;;;9.65;36.84;101924.09;5014476;28;20137;-70
2022/05/18 03:14:53;;;;;;;5.38;1.90;;;;;;;9.71;36.78;101922.72;5014782;28;20128;-70
2022/05/18 03:17:19;;;;;;;4.13;1.10;;;;;;;9.66;36.73;101931.13;5014287;28;20134;-70
2022/05/18 03:19:46;;;;;;;7.57;1.42;;;;;;;9.65;36.59;101937.47;5014507;28;20129;-70
2022/05/18 03:24:57;;;;;;;6.97;1.40;;;;;;;9.61;36.63;101943.19;5014571;28;20096;-70
2022/05/18 03:27:24;;;;;;;5.45;1.83;;;;;;;9.57;35.89;101942.59;5014466;28;20470;-71
2022/05/18 03:29:50;;;;;;;4.57;1.30;;;;;;;9.61;36.31;101938.69;5014674;28;20469;-71
2022/05/18 03:32:17;;;;;;;5.18;1.30;;;;;;;9.61;35.89;101948.56;5015038;28;20129;-70
2022/05/18 03:34:43;;;;;;;4.60;1.80;;;;;;;9.61;35.91;101948.56;5015583;28;20474;-71
2022/05/18 03:37:10;;;;;;;7.40;1.77;;;;;;;9.64;36.33;101951.84;5000037;28;20137;-71
2022/05/18 03:39:36;;;;;;;5.00;1.40;;;;;;;9.68;35.86;101957.78;4997555;28;20485;-71
2022/05/18 03:42:03;;;;;;;3.60;1.70;;;;;;;9.59;35.91;101951.38;5014369;28;20084;-71
2022/05/18 03:44:30;;;;;;;6.43;1.38;;;;;;;9.59;36.16;101959.41;5014291;28;20142;-72
2022/05/18 03:46:56;;;;;;;5.95;1.40;;;;;;;9.50;36.01;101952.09;5014494;28;20093;-71
2022/05/18 03:49:23;;;;;;;4.57;1.73;;;;;;;9.49;35.96;101951.25;5014040;28;20057;-70
2022/05/18 03:51:49;;;;;;;6.38;1.40;;;;;;;9.50;36.17;101958.31;5014168;28;20145;-71
2022/05/18 03:54:16;;;;;;;4.47;1.42;;;;;;;9.54;36.02;101954.44;5014757;28;20049;-71
2022/05/18 03:56:43;;;;;;;3.75;1.38;;;;;;;9.57;36.05;101964.88;5014875;28;20446;-71
2022/05/18 03:59:09;;;;;;;12.70;1.35;;;;;;;9.61;35.87;101961.94;5014275;28;20457;-71
2022/05/18 04:01:36;;;;;;;9.27;1.35;;;;;;;9.47;35.53;101963.94;5014600;28;20136;-71
2022/05/18 04:04:03;;;;;;;6.85;1.50;;;;;;;9.57;35.75;101970.22;5014207;28;20409;-71
2022/05/18 04:06:29;;;;;;;6.20;1.40;;;;;;;9.55;35.79;101972.19;5013872;28;20096;-70
2022/05/18 04:08:56;;;;;;;4.50;1.85;;;;;;;9.64;36.37;101969.75;5014337;28;20054;-70
2022/05/18 04:11:22;;;;;;;2.08;1.20;;;;;;;9.62;36.08;101969.03;5014658;28;20462;-70
2022/05/18 04:13:50;;;;;;;3.65;1.58;;;;;;;9.61;36.20;101967.31;5014699;28;20136;-70
2022/05/18 04:16:17;;;;;;;4.93;1.20;;;;;;;9.59;36.13;101969.28;5013973;28;20544;-70
2022/05/18 04:18:44;;;;;;;5.80;1.20;;;;;;;9.71;35.66;101970.94;5014104;28;20045;-70
2022/05/18 04:21:10;;;;;;;6.85;1.58;;;;;;;9.73;36.11;101974.38;5014302;28;20081;-70
2022/05/18 04:23:38;;;;;;;4.78;1.73;;;;;;;9.85;35.80;101965.31;5014318;28;20136;-70
2022/05/18 04:26:06;;;;;;;7.43;1.33;;;;;;;9.84;35.64;101968.97;4996317;28;20097;-70
2022/05/18 04:28:32;;;;;;;5.32;1.33;;;;;;;9.92;36.03;101963.00;5013860;28;20096;-70
2022/05/18 04:31:01;;;;;;;6.65;1.60;;;;;;;9.93;35.91;101964.72;5013589;28;20137;-70
2022/05/18 04:33:28;;;;;;;4.90;1.40;;;;;;;9.94;35.83;101966.41;5014105;28;20046;-70
2022/05/18 04:35:54;;;;;;;5.82;1.83;;;;;;;9.94;36.11;101975.28;5017640;28;20134;-71
2022/05/18 04:38:22;;;;;;;3.75;1.40;;;;;;;9.99;35.95;101972.22;5018407;28;20136;-71
2022/05/18 04:40:54;;;;;;;2.35;1.13;;;;;;;9.89;36.04;101961.44;5017586;28;20108;-70
2022/05/18 04:43:21;;;;;;;3.75;1.48;;;;;;;9.89;36.10;101966.78;5017629;28;20354;-70
2022/05/18 04:45:51;;;;;;;3.83;1.55;;;;;;;9.80;35.98;101970.22;5017889;28;20065;-71
2022/05/18 04:48:20;;;;;;;5.25;1.75;;;;;;;9.93;36.47;101983.47;5017423;28;20125;-70
2022/05/18 04:50:50;;;;;;;10.55;2.25;;;;;;;9.95;36.10;101984.19;5017061;28;20141;-70
2022/05/18 04:53:17;;;;;;;4.75;1.55;;;;;;;9.90;36.25;101979.22;5016834;28;20089;-70
2022/05/18 04:55:44;;;;;;;4.13;1.45;;;;;;;9.88;36.43;101985.66;5016625;28;20137;-70
2022/05/18 04:58:11;;;;;;;7.72;1.63;;;;;;;10.04;36.32;101989.66;5017337;28;20482;-71
2022/05/18 05:00:39;;;;;;;5.50;1.42;;;;;;;10.09;36.25;101986.59;5017203;28;20145;-70
2022/05/18 05:03:05;;;;;;;6.22;1.60;;;;;;;9.96;36.37;101994.81;5017876;28;20053;-70
2022/05/18 05:05:32;;;;;;;5.13;1.50;;;;;;;10.09;36.64;101999.16;5017527;28;20054;-70
2022/05/18 05:07:59;;;;;;;13.77;1.63;;;;;;;10.19;36.48;102003.63;5017115;28;20534;-70
2022/05/18 05:10:26;;;;;;;15.20;2.13;;;;;;;10.01;35.99;101994.41;5016711;28;20100;-70
2022/05/18 05:12:53;;;;;;;7.85;1.58;;;;;;;10.08;36.35;101995.63;5017420;28;20137;-70
2022/05/18 05:15:19;;;;;;;9.27;2.08;;;;;;;10.09;36.50;101996.47;5017778;28;20457;-70
2022/05/18 05:17:46;;;;;;;4.72;1.63;;;;;;;10.09;36.54;101997.31;5017142;28;20050;-71
2022/05/18 05:20:13;;;;;;;4.90;1.85;;;;;;;10.18;36.18;101998.41;5017767;28;20140;-71
2022/05/18 05:22:40;;;;;;;16.58;2.22;;;;;;;10.17;36.29;101996.72;5017059;28;20427;-70
2022/05/18 05:25:07;;;;;;;9.73;2.00;;;;;;;10.13;36.83;102000.59;5017079;28;20465;-70
2022/05/18 05:27:33;;;;;;;7.68;1.50;;;;;;;9.96;36.94;102010.03;5016419;28;20386;-70
2022/05/18 05:30:01;;;;;;;11.32;2.28;;;;;;;9.91;37.14;102005.03;5017529;28;20497;-70
2022/05/18 05:32:30;;;;;;;7.32;1.48;;;;;;;10.16;37.05;102006.56;5019303;28;20445;-71
2022/05/18 05:34:56;;;;;;;10.90;2.03;;;;;;;10.08;36.93;102009.03;5016396;28;20052;-71
2022/05/18 05:37:23;;;;;;;9.05;2.03;;;;;;;10.26;36.85;102004.81;5016688;28;20050;-71
2022/05/18 05:39:49;;;;;;;3.63;1.85;;;;;;;9.98;37.00;102005.38;5016815;28;20208;-70
2022/05/18 05:42:16;;;;;;;4.93;1.88;;;;;;;10.07;37.35;102004.66;5016811;28;20452;-71
2022/05/18 05:44:43;;;;;;;8.93;1.90;;;;;;;10.17;36.89;102004.75;5017202;28;20074;-70
2022/05/18 05:47:11;;;;;;;10.98;2.00;;;;;;;10.21;37.19;102006.19;5016078;28;20136;-70
2022/05/18 05:49:42;;;;;;;8.77;1.90;;;;;;;10.12;37.48;102001.56;5017630;28;20061;-71
2022/05/18 05:52:09;;;;;;;13.55;2.25;;;;;;;10.25;37.64;101997.75;5016870;28;20045;-71
2022/05/18 05:54:36;;;;;;;7.45;1.80;;;;;;;10.35;37.45;102008.59;5018041;28;20451;-70
2022/05/18 05:57:04;;;;;;;6.68;1.80;;;;;;;10.34;37.61;102009.56;5020936;28;20058;-71
2022/05/18 05:59:33;;;;;;;4.65;1.95;;;;;;;10.48;37.43;102006.59;5016891;28;20050;-70
2022/05/18 06:02:01;;;;;;;6.82;1.55;;;;;;;10.39;37.83;102009.19;4999144;28;20096;-71
2022/05/18 06:04:33;;;;;;;10.10;1.65;;;;;;;10.30;38.01;102009.94;5016824;28;20046;-71
2022/05/18 06:07:00;;;;;;;6.72;1.73;;;;;;;10.38;38.15;102010.16;5016244;28;20552;-70
2022/05/18 06:09:27;;;;;;;6.35;2.20;;;;;;;10.47;37.88;102009.38;5016091;28;20054;-70
2022/05/18 06:11:53;;;;;;;5.85;2.03;;;;;;;10.58;38.05;102014.75;5017305;28;20060;-70
2022/05/18 06:14:20;;;;;;;18.15;2.30;;;;;;;10.64;37.87;102024.09;5016569;28;20089;-70
2022/05/18 06:16:47;;;;;;;6.53;1.98;;;;;;;10.76;37.87;102019.56;5015863;28;20089;-70
2022/05/18 06:19:15;;;;;;;7.00;2.08;;;;;;;10.82;37.92;102014.50;5015996;28;20073;-70
2022/05/18 06:21:42;;;;;;;7.47;2.40;;;;;;;10.90;37.47;102022.75;5016116;28;20077;-71
2022/05/18 06:24:09;;;;;;;12.40;2.10;;;;;;;11.01;37.39;102021.84;5015086;28;20145;-71
2022/05/18 06:26:36;;;;;;;9.32;2.40;;;;;;;10.94;37.89;102016.16;5015266;28;20128;-71
2022/05/18 06:29:04;;;;;;;11.63;2.00;;;;;;;11.11;37.82;102021.91;4998187;28;20046;-70
2022/05/18 06:31:31;;;;;;;13.18;2.00;;;;;;;10.98;37.87;102020.25;5015942;28;20106;-71
2022/05/18 06:34:04;;;;;;;6.38;1.90;;;;;;;11.19;37.95;102024.78;5015469;28;20049;-70
2022/05/18 06:36:31;;;;;;;8.45;2.00;;;;;;;11.25;38.37;102018.03;5016194;28;20535;-70
2022/05/18 06:38:57;;;;;;;10.95;2.10;;;;;;;11.15;38.28;102016.13;5015563;28;20553;-70
2022/05/18 06:41:31;;;;;;;4.97;2.10;;;;;;;11.51;37.88;102029.19;5015524;28;20089;-71
2022/05/18 06:44:03;;;;;;;9.00;2.13;;;;;;;11.67;37.60;102024.19;5015532;28;20461;-70
2022/05/18 06:46:31;;;;;;;;;;;;;;;11.91;37.35;102027.38;5016507;28;20058;-70
2022/05/18 06:48:57;;;;;;;4.88;1.83;;;;;;;11.95;37.74;102035.19;5016155;28;20345;-70
2022/05/18 06:51:30;;;;;;;9.82;2.20;;;;;;;12.00;37.92;102041.00;5014837;28;20545;-71
2022/05/18 06:53:57;;;;;;;5.15;2.15;;;;;;;12.29;37.70;102031.16;5015211;28;20447;-71
2022/05/18 06:56:27;;;;;;;8.50;2.20;;;;;;;12.51;36.72;102034.56;5014878;28;20060;-71
2022/05/18 06:58:54;;;;;;;6.65;2.50;;;;;;;12.72;37.01;102032.56;5012816;28;20128;-71
2022/05/18 07:01:21;;;;;;;10.88;2.55;;;;;;;13.15;36.32;102039.38;5015049;28;20081;-71
2022/05/18 07:03:48;;;;;;;16.98;2.67;;;;;;;13.46;36.13;102044.56;5015432;28;20482;-71
2022/05/18 07:06:18;;;;;;;9.63;3.38;;;;;;;13.62;35.82;102046.59;5014761;28;20430;-71
2022/05/18 07:08:45;;;;;;;12.30;3.05;;;;;;;14.02;35.14;102046.31;5014336;28;20086;-71
2022/05/18 07:11:12;;;;;;;15.45;2.38;;;;;;;14.22;34.66;102041.63;5015206;28;20136;-70
2022/05/18 07:13:38;;;;;;;8.68;2.50;;;;;;;14.66;34.30;102044.44;5014756;28;20085;-70
2022/05/18 07:16:06;;;;;;;8.57;2.20;;;;;;;14.89;34.04;102037.59;5014636;28;20173;-71
2022/05/18 07:18:34;;;;;;;7.97;2.33;;;;;;;14.44;33.98;102037.66;5014276;28;20046;-71
2022/05/18 07:21:02;;;;;;;7.47;2.10;;;;;;;15.12;33.67;102037.94;5014380;28;20086;-70
2022/05/18 07:23:29;;;;;;;4.28;1.73;;;;;;;15.45;32.96;102038.97;5014856;28;20050;-70
2022/05/18 07:25:57;;;;;;;8.32;2.08;;;;;;;15.53;32.98;102043.56;5013896;28;20077;-71
2022/05/18 07:28:24;;;;;;;8.25;2.13;;;;;;;15.74;32.77;102047.78;5013853;28;20128;-71
2022/05/18 07:30:52;;;;;;;10.05;2.05;;;;;;;15.81;32.28;102038.00;4997888;28;20480;-70
2022/05/18 07:33:20;;;;;;;8.23;2.67;;;;;;;16.35;32.07;102043.94;5013845;28;20104;-70
2022/05/18 07:35:49;;;;;;;5.00;2.30;;;;;;;16.51;31.79;102046.72;5013871;28;20057;-70
2022/05/18 07:38:18;;;;;;;4.88;2.08;;;;;;;16.79;31.19;102049.09;5013791;28;20068;-71
2022/05/18 07:41:04;;;;;;;8.15;2.35;;;;;;;16.51;32.03;102051.28;5013509;28;20061;-70
2022/05/18 07:43:31;;;;;;;8.90;2.70;;;;;;;16.83;31.95;102045.88;5013621;28;20050;-70
2022/05/18 07:45:59;;;;;;;12.57;2.40;;;;;;;17.87;30.23;102037.88;5013618;28;20052;-70
2022/05/18 07:48:28;;;;;;;9.82;2.40;;;;;;;17.44;30.62;102042.75;5013332;28;20104;-73
2022/05/18 07:50:57;;;;;;;10.77;2.90;;;;;;;16.87;31.31;102036.38;5013638;28;20054;-70
2022/05/18 07:53:25;;;;;;;11.18;2.80;;;;;;;17.35;31.21;102034.66;5014261;28;20050;-71
2022/05/18 07:55:53;;;;;;;5.68;2.70;;;;;;;17.70;30.93;102027.09;5014593;28;20527;-70
2022/05/18 07:58:22;;;;;;;13.25;2.88;;;;;;;17.77;30.94;102019.09;5013879;28;20046;-70
2022/05/18 08:00:49;;;;;;;8.63;3.13;;;;;;;17.51;31.74;102022.94;5014395;28;20461;-70
2022/05/18 08:03:17;;;;;;;5.43;2.63;;;;;;;17.43;31.58;102019.38;5015104;28;20084;-70
2022/05/18 08:05:46;;;;;;;13.88;3.22;;;;;;;17.56;32.00;102031.38;5013894;28;20045;-70
2022/05/18 08:08:19;;;;;;;15.93;2.97;;;;;;;17.76;31.32;102020.13;5013747;28;20145;-70
2022/05/18 08:16:20;;;;;;;8.68;2.90;;;;;;;16.51;33.29;102025.03;5017796;28;20057;-71
2022/05/18 08:18:48;;;;;;;9.63;2.67;;;;;;;17.20;32.83;102019.22;5017819;28;20041;-71
2022/05/18 08:21:17;;;;;;;10.60;3.10;;;;;;;17.75;32.40;102029.25;5018360;28;20060;-71
2022/05/18 08:23:46;;;;;;;9.50;3.00;;;;;;;18.40;31.40;102026.22;5017903;28;20494;-70
2022/05/18 08:26:21;;;;;;;9.60;2.55;;;;;;;18.68;30.86;102022.94;5017400;28;20062;-70
2022/05/18 08:28:49;;;;;;;9.40;2.92;;;;;;;18.31;31.75;102021.88;5017141;28;20046;-70
2022/05/18 08:31:17;;;;;;;8.15;2.70;;;;;;;18.57;31.80;102017.94;5017300;28;20137;-70
2022/05/18 08:33:45;;;;;;;10.55;4.30;;;;;;;19.62;30.47;102021.53;5017923;28;20557;-70
2022/05/18 08:36:14;;;;;;;6.85;3.20;;;;;;;19.24;30.38;102026.19;5018167;28;20552;-72
2022/05/18 08:38:41;;;;;;;9.55;3.05;;;;;;;19.55;30.22;102019.72;5017578;28;20371;-71
2022/05/18 08:41:26;;;;;;;14.70;2.95;;;;;;;19.67;30.64;102018.25;5017977;28;20054;-71
2022/05/18 08:43:58;;;;;;;9.23;2.88;;;;;;;18.94;31.45;102009.84;5017479;28;20054;-71
2022/05/18 08:46:52;;;;;;;7.95;3.85;;;;;;;18.81;31.29;102015.03;5018167;28;20053;-70
2022/05/18 08:50:02;;;;;;;14.57;3.35;;;;;;;19.15;31.48;102005.56;5017124;28;20049;-71
2022/05/18 08:52:50;;;;;;;11.50;3.30;;;;;;;19.25;31.39;102006.13;5017027;28;20064;-71
2022/05/18 08:55:39;;;;;;;9.02;3.05;;;;;;;19.72;30.90;102004.91;5017096;28;20060;-70
2022/05/18 08:58:30;;;;;;;10.35;3.22;;;;;;;19.83;30.65;102004.47;5016984;28;20050;-70
2022/05/18 09:01:02;;;;;;;9.57;3.40;;;;;;;20.68;29.47;102002.84;4996262;28;20049;-70
2022/05/18 09:03:39;;;;;;;7.85;3.60;;;;;;;20.90;29.85;102000.94;5016546;28;20053;-71
2022/05/18 09:06:12;;;;;;;9.32;2.90;;;;;;;20.55;30.10;102008.19;5017613;28;20062;-71
2022/05/18 09:08:44;;;;;;;12.70;3.13;;;;;;;20.38;30.83;102000.22;5016720;28;20057;-71
2022/05/18 09:11:20;;;;;;;8.52;3.42;;;;;;;21.02;30.01;101998.50;5016781;28;20140;-71
2022/05/18 09:13:48;;;;;;;11.50;2.78;;;;;;;21.74;29.28;101998.13;5017286;28;20050;-71
2022/05/18 09:16:49;;;;;;;14.15;3.58;;;;;;;21.05;29.50;101995.38;5016824;28;20108;-71
2022/05/18 09:19:39;;;;;;;9.57;3.05;;;;;;;20.66;30.71;101986.69;5016904;28;20054;-71
2022/05/18 09:22:10;;;;;;;10.23;3.88;;;;;;;20.77;30.91;101990.78;5019000;28;20066;-71
2022/05/18 09:24:59;;;;;;;10.10;3.25;;;;;;;21.31;30.53;101995.56;5016655;28;20577;-70
2022/05/18 09:27:43;;;;;;;9.52;3.38;;;;;;;21.84;29.37;101986.84;5016929;28;20142;-71
2022/05/18 09:30:33;;;;;;;10.35;3.75;;;;;;;22.02;29.13;101987.09;5016558;28;20054;-70
2022/05/18 09:33:39;;;;;;;7.25;3.20;;;;;;;21.90;29.85;101982.44;5017185;28;20054;-70
2022/05/18 09:36:51;;;;;;;7.70;3.70;;;;;;;22.05;30.20;101988.59;5015723;28;20046;-70
2022/05/18 09:39:23;;;;;;;12.52;4.13;;;;;;;21.99;30.69;101983.94;5016618;28;20077;-71
2022/05/18 09:42:18;;;;;;;12.30;3.80;;;;;;;22.38;29.93;101979.59;5017399;28;20403;-70
2022/05/18 09:45:03;;;;;;;13.23;4.03;;;;;;;22.16;30.14;101973.47;5016311;28;20050;-71
2022/05/18 09:47:37;;;;;;;11.07;3.70;;;;;;;21.45;30.83;101982.00;5017046;28;20448;-70
2022/05/18 09:50:08;;;;;;;9.63;3.75;;;;;;;21.53;31.33;101979.97;4999361;28;20046;-71
2022/05/18 09:52:39;;;;;;;15.07;4.53;;;;;;;21.62;30.97;101977.88;5016127;28;20494;-71
2022/05/18 09:55:11;;;;;;;10.00;4.88;;;;;;;21.16;30.90;101978.50;5016386;28;20104;-70
2022/05/18 09:58:09;;;;;;;19.30;4.32;;;;;;;21.25;31.88;101973.69;5016118;28;20457;-71
2022/05/18 10:00:39;;;;;;;14.75;3.90;;;;;;;21.67;31.49;101969.06;5016278;28;20409;-70
2022/05/18 10:09:11;;;;;;;6.65;4.20;;;;;;;22.29;30.96;101971.63;5015722;28;20054;-71
2022/05/18 10:11:39;;;;;;;9.27;3.90;;;;;;;22.61;30.19;101960.94;5016048;28;20117;-71
2022/05/18 10:14:16;;;;;;;8.50;4.35;;;;;;;23.10;29.49;101959.63;5016452;28;20061;-70
2022/05/18 10:17:01;;;;;;;9.95;4.15;;;;;;;22.83;29.79;101961.53;4982062;28;20054;-70
2022/05/18 10:20:06;;;;;;;11.68;4.68;;;;;;;22.43;31.01;101955.19;5015726;28;20514;-70
2022/05/18 10:22:40;;;;;;;7.50;3.88;;;;;;;21.99;31.50;101952.00;5016166;28;20056;-71
2022/05/18 10:25:28;;;;;;;12.68;4.07;;;;;;;22.56;30.79;101952.50;4998480;28;20552;-71
2022/05/18 10:27:57;;;;;;;14.93;4.82;;;;;;;23.32;29.45;101942.94;5015183;28;20046;-70
2022/05/18 10:30:34;;;;;;;10.38;4.82;;;;;;;21.96;31.71;101946.09;5015918;28;20046;-70
2022/05/18 10:33:18;;;;;;;12.25;4.05;;;;;;;22.78;30.71;101953.16;5015030;28;20136;-71
2022/05/18 10:35:52;;;;;;;11.77;4.00;;;;;;;22.15;31.96;101949.91;5014820;28;20054;-70
2022/05/18 10:38:33;;;;;;;9.43;4.07;;;;;;;22.31;31.44;101946.78;5016084;28;20484;-71
2022/05/18 10:41:14;;;;;;;10.43;4.20;;;;;;;21.78;32.84;101946.66;5015581;28;20046;-71
2022/05/18 10:43:59;;;;;;;11.05;3.90;;;;;;;22.16;32.22;101954.34;5014765;28;20049;-70
2022/05/18 10:46:38;;;;;;;14.50;4.22;;;;;;;21.85;32.55;101951.13;5014781;28;20545;-71
2022/05/18 10:49:20;;;;;;;11.18;4.53;;;;;;;22.12;31.82;101943.00;5014504;28;20042;-70
2022/05/18 10:51:49;;;;;;;7.00;4.50;;;;;;;22.11;32.14;101943.19;5015659;28;20228;-70
2022/05/18 10:54:21;;;;;;;14.63;4.43;;;;;;;21.73;32.92;101938.22;5015081;28;20050;-70
2022/05/18 10:56:49;;;;;;;25.52;6.18;;;;;;;21.93;32.95;101930.94;5015756;28;20061;-70
2022/05/18 10:59:34;;;;;;;12.05;4.82;;;;;;;21.99;32.27;101932.88;5014951;28;20085;-69
2022/05/18 11:02:12;;;;;;;10.93;4.53;;;;;;;21.77;32.88;101932.16;5015578;28;20085;-70
2022/05/18 11:04:55;;;;;;;7.43;4.55;;;;;;;21.26;33.18;101926.28;5015272;28;20057;-71
2022/05/18 11:07:25;;;;;;;12.25;5.10;;;;;;;20.40;34.41;101937.38;5015499;28;20050;-70
2022/05/18 11:09:52;;;;;;;9.40;4.65;;;;;;;20.35;35.07;101935.22;5015639;28;20052;-69
2022/05/18 11:12:44;;;;;;;12.43;4.60;;;;;;;20.57;34.67;101929.78;5015657;28;20120;-69
2022/05/18 11:15:18;;;;;;;8.20;4.47;;;;;;;20.66;33.79;101920.38;5015573;28;20042;-71
2022/05/18 11:17:50;;;;;;;12.00;4.53;;;;;;;20.74;33.99;101909.34;5015272;28;20122;-71
2022/05/18 11:20:49;;;;;;;7.18;4.28;;;;;;;20.63;34.28;101907.19;5015559;28;20504;-70
2022/05/18 11:23:39;;;;;;;11.18;4.60;;;;;;;21.79;32.94;101907.34;5015522;28;20427;-70
2022/05/18 11:26:16;;;;;;;8.55;4.85;;;;;;;21.31;32.84;101904.66;5014889;28;20149;-70
2022/05/18 11:29:29;;;;;;;10.05;4.20;;;;;;;21.10;33.16;101908.31;5014695;28;20045;-70
2022/05/18 11:32:17;;;;;;;11.40;4.35;;;;;;;21.03;33.39;101893.78;5015679;28;20054;-69
2022/05/18 11:34:56;;;;;;;9.35;4.85;;;;;;;21.31;32.63;101897.31;5015168;28;20050;-70
2022/05/18 11:37:22;;;;;;;11.00;5.50;;;;;;;21.92;32.46;101895.66;5015554;28;20054;-70
2022/05/18 11:40:04;;;;;;;13.02;5.75;;;;;;;21.76;32.39;101889.47;5015337;28;20132;-70
2022/05/18 11:42:59;;;;;;;10.32;4.63;;;;;;;20.55;34.58;101889.06;5015310;28;20521;-70
2022/05/18 11:45:44;;;;;;;14.95;4.75;;;;;;;21.14;34.03;101882.31;5015346;28;20057;-70
2022/05/18 11:48:23;;;;;;;14.68;5.00;;;;;;;20.56;34.95;101870.81;5014996;28;20136;-70
2022/05/18 11:51:15;;;;;;;11.35;4.13;;;;;;;20.52;35.06;101880.44;5015138;28;20053;-70
2022/05/18 11:54:14;;;;;;;10.40;4.10;;;;;;;20.30;35.37;101883.19;5014766;28;20060;-70
2022/05/18 11:56:51;;;;;;;10.48;4.07;;;;;;;19.81;35.99;101875.81;5015911;28;20053;-70
2022/05/18 12:02:05;;;;;;;12.02;4.38;;;;;;;19.66;36.87;101873.13;5015739;28;20473;-70
2022/05/18 12:05:03;;;;;;;9.98;4.15;;;;;;;19.92;36.26;101869.00;5016069;28;20057;-71
2022/05/18 12:07:51;;;;;;;14.23;4.07;;;;;;;20.08;35.93;101876.06;5016783;28;20054;-69
2022/05/18 12:10:53;;;;;;;11.10;4.50;;;;;;;19.96;36.13;101862.97;5017329;28;20041;-69